createdAt,value
2023-08-15T00:03:38.143Z,6.93
2023-08-15T00:07:39.688Z,6.18
2023-08-15T00:11:41.202Z,6.18
2023-08-15T00:15:43.004Z,5.78
2023-08-15T00:19:45.884Z,6.93
2023-08-15T00:23:47.473Z,4.65
2023-08-15T00:27:49.008Z,7.85
2023-08-15T00:31:50.642Z,5.30
2023-08-15T00:35:53.589Z,2.42
2023-08-15T00:39:55.288Z,6.45
2023-08-15T00:43:56.956Z,5.00
2023-08-15T00:47:58.722Z,5.65
2023-08-15T00:52:02.309Z,6.38
2023-08-15T00:56:04.425Z,3.20
2023-08-15T01:00:07.462Z,4.07
2023-08-15T01:04:09.497Z,5.93
2023-08-15T01:08:12.376Z,6.07
2023-08-15T01:12:25.454Z,8.07
2023-08-15T01:16:32.584Z,6.88
2023-08-15T01:20:36.788Z,6.55
2023-08-15T01:24:39.897Z,7.03
2023-08-15T01:28:41.587Z,8.45
2023-08-15T01:32:49.776Z,9.52
2023-08-15T01:36:55.097Z,7.80
2023-08-15T01:41:02.234Z,7.13
2023-08-15T01:45:04.582Z,7.68
2023-08-15T01:49:06.195Z,6.72
2023-08-15T01:53:07.790Z,6.05
2023-08-15T01:57:10.699Z,7.13
2023-08-15T02:01:12.270Z,7.53
2023-08-15T02:05:13.942Z,3.78
2023-08-15T02:09:15.523Z,7.38
2023-08-15T02:13:18.910Z,6.60
2023-08-15T02:17:20.599Z,6.45
2023-08-15T02:21:22.400Z,7.90
2023-08-15T02:25:23.991Z,3.75
2023-08-15T02:29:26.888Z,8.43
2023-08-15T02:33:28.442Z,6.85
2023-08-15T02:37:29.978Z,8.55
2023-08-15T02:41:31.527Z,6.43
2023-08-15T02:45:34.427Z,7.80
2023-08-15T02:49:35.970Z,8.52
2023-08-15T02:53:37.529Z,6.90
2023-08-15T02:57:39.090Z,9.70
2023-08-15T03:01:41.978Z,8.63
2023-08-15T03:05:43.528Z,7.75
2023-08-15T03:09:45.088Z,7.97
2023-08-15T03:13:46.625Z,10.20
2023-08-15T03:17:49.562Z,10.43
2023-08-15T03:21:51.243Z,7.20
2023-08-15T03:25:56.868Z,8.27
2023-08-15T03:29:58.484Z,9.45
2023-08-15T03:34:01.406Z,8.73
2023-08-15T03:38:03.014Z,8.25
2023-08-15T03:42:05.264Z,8.20
2023-08-15T03:46:07.220Z,8.45
2023-08-15T03:50:10.372Z,8.18
2023-08-15T03:54:11.932Z,8.95
2023-08-15T03:58:13.478Z,10.13
2023-08-15T04:02:15.043Z,10.55
2023-08-15T04:06:17.924Z,9.35
2023-08-15T04:10:19.555Z,9.60
2023-08-15T04:14:21.125Z,12.02
2023-08-15T04:18:22.664Z,7.15
2023-08-15T04:22:25.570Z,10.32
2023-08-15T04:26:27.132Z,10.65
2023-08-15T04:30:29.570Z,13.73
2023-08-15T04:34:31.264Z,11.32
2023-08-15T04:38:34.176Z,9.55
2023-08-15T04:42:35.714Z,10.98
2023-08-15T04:46:37.386Z,9.30
2023-08-15T04:50:38.946Z,9.43
2023-08-15T04:54:41.837Z,10.23
2023-08-15T04:58:43.377Z,10.73
2023-08-15T05:02:45.007Z,10.07
2023-08-15T05:06:46.566Z,11.68
2023-08-15T05:10:49.536Z,9.43
2023-08-15T05:14:51.117Z,12.48
2023-08-15T05:18:52.660Z,10.05
2023-08-15T05:22:54.428Z,12.55
2023-08-15T05:26:57.348Z,9.23
2023-08-15T05:30:59.020Z,12.20
2023-08-15T05:35:00.583Z,10.90
2023-08-15T05:39:02.121Z,10.05
2023-08-15T05:43:05.084Z,12.02
2023-08-15T05:47:06.703Z,11.68
2023-08-15T05:51:08.317Z,9.98
2023-08-15T05:55:09.852Z,11.88
2023-08-15T05:59:12.748Z,9.65
2023-08-15T06:03:14.397Z,9.48
2023-08-15T06:07:16.026Z,10.73
2023-08-15T06:11:17.568Z,10.00
2023-08-15T06:15:20.481Z,7.45
2023-08-15T06:19:22.020Z,10.30
2023-08-15T06:23:23.644Z,9.30
2023-08-15T06:27:25.205Z,8.15
2023-08-15T06:31:28.539Z,8.80
2023-08-15T06:35:30.125Z,9.48
2023-08-15T06:39:31.674Z,10.65
2023-08-15T06:43:33.342Z,8.88
2023-08-15T06:47:36.280Z,7.88
2023-08-15T06:51:37.863Z,10.38
2023-08-15T06:55:39.409Z,9.18
2023-08-15T06:59:40.978Z,12.77
2023-08-15T07:03:44.067Z,6.95
2023-08-15T07:07:45.686Z,11.38
2023-08-15T07:11:47.392Z,9.40
2023-08-15T07:15:54.130Z,8.75
2023-08-15T07:19:57.136Z,8.38
2023-08-15T07:23:58.731Z,7.88
2023-08-15T07:28:00.303Z,9.27
2023-08-15T07:32:06.695Z,8.48
2023-08-15T07:36:10.114Z,8.65
2023-08-15T07:40:20.000Z,6.82
2023-08-15T07:44:21.541Z,7.72
2023-08-15T07:52:26.650Z,6.43
2023-08-15T07:56:28.523Z,8.65
2023-08-15T08:00:30.912Z,7.85
2023-08-15T08:04:32.486Z,5.55
2023-08-15T08:08:37.944Z,8.00
2023-08-15T08:12:39.778Z,10.55
2023-08-15T08:16:41.399Z,7.88
2023-08-15T08:20:42.957Z,8.20
2023-08-15T08:24:46.028Z,8.45
2023-08-15T08:28:47.594Z,8.35
2023-08-15T08:32:49.753Z,7.43
2023-08-15T08:36:51.361Z,7.28
2023-08-15T08:40:56.174Z,5.28
2023-08-15T08:49:01.792Z,7.63
2023-08-15T08:53:03.601Z,7.28
2023-08-15T08:57:07.476Z,7.07
2023-08-15T09:01:10.828Z,5.28
2023-08-15T09:05:12.843Z,7.95
2023-08-15T09:09:14.478Z,4.93
2023-08-15T09:13:23.605Z,6.75
2023-08-15T09:17:25.321Z,6.60
2023-08-15T09:21:27.855Z,6.43
2023-08-15T09:25:29.698Z,8.35
2023-08-15T09:29:34.724Z,5.97
2023-08-15T09:33:36.632Z,7.57
2023-08-15T09:37:41.734Z,6.00
2023-08-15T09:41:43.669Z,8.02
2023-08-15T09:45:47.574Z,6.32
2023-08-15T09:49:52.098Z,6.70
2023-08-15T09:53:54.659Z,7.45
2023-08-15T09:57:56.275Z,7.82
2023-08-15T10:02:01.553Z,6.88
2023-08-15T10:06:04.501Z,8.50
2023-08-15T10:10:07.326Z,9.05
2023-08-15T10:14:10.533Z,8.73
2023-08-15T10:18:14.258Z,4.85
2023-08-15T10:22:18.872Z,5.90
2023-08-15T10:26:20.844Z,6.20
2023-08-15T10:30:29.582Z,5.47
2023-08-15T10:34:34.819Z,5.03
2023-08-15T10:38:40.621Z,5.20
2023-08-15T10:43:07.987Z,8.32
2023-08-15T10:47:23.907Z,7.63
2023-08-15T10:51:28.393Z,6.18
2023-08-15T10:59:32.833Z,8.63
2023-08-15T11:03:35.539Z,9.02
2023-08-15T11:07:38.638Z,7.90
2023-08-15T11:11:40.584Z,7.78
2023-08-15T11:15:42.709Z,6.93
2023-08-15T11:19:44.808Z,6.53
2023-08-15T11:23:50.226Z,8.48
2023-08-15T11:27:52.224Z,4.93
2023-08-15T11:31:53.947Z,7.32
2023-08-15T11:35:55.868Z,7.15
2023-08-15T11:39:58.823Z,5.78
2023-08-15T11:44:01.903Z,7.50
2023-08-15T11:48:05.330Z,9.55
2023-08-15T11:52:07.005Z,7.05
2023-08-15T11:56:10.006Z,7.07
2023-08-15T12:00:12.601Z,4.97
2023-08-15T12:04:14.595Z,7.65
2023-08-15T12:08:16.974Z,5.35
2023-08-15T12:12:21.641Z,7.15
2023-08-15T12:16:23.562Z,5.90
2023-08-15T12:20:25.104Z,6.38
2023-08-15T12:24:26.658Z,7.45
2023-08-15T12:28:29.657Z,6.57
2023-08-15T12:32:31.574Z,4.80
2023-08-15T12:36:33.141Z,7.15
2023-08-15T12:40:34.765Z,7.35
2023-08-15T12:44:37.664Z,3.95
2023-08-15T12:48:39.360Z,4.70
2023-08-15T12:52:40.918Z,5.00
2023-08-15T12:56:42.450Z,8.25
2023-08-15T13:00:46.112Z,4.93
2023-08-15T13:04:47.693Z,5.35
2023-08-15T13:08:49.254Z,7.78
2023-08-15T13:12:50.805Z,5.47
2023-08-15T13:16:54.746Z,7.93
2023-08-15T13:20:56.570Z,5.65
2023-08-15T13:24:58.142Z,5.13
2023-08-15T13:28:59.710Z,5.75
2023-08-15T13:33:02.659Z,6.97
2023-08-15T13:37:04.361Z,8.25
2023-08-15T13:41:06.174Z,6.53
2023-08-15T13:45:09.458Z,6.28
2023-08-15T13:49:12.864Z,10.30
2023-08-15T13:53:14.410Z,6.60
2023-08-15T13:57:16.002Z,8.82
2023-08-15T14:01:17.790Z,7.03
2023-08-15T14:05:21.014Z,6.45
2023-08-15T14:09:22.600Z,10.55
2023-08-15T14:13:24.308Z,9.10
2023-08-15T14:17:25.855Z,9.60
2023-08-15T14:21:28.751Z,7.20
2023-08-15T14:25:30.457Z,7.18
2023-08-15T14:29:32.021Z,6.03
2023-08-15T14:33:33.708Z,7.78
2023-08-15T14:37:36.646Z,6.47
2023-08-15T14:41:38.193Z,8.02
2023-08-15T14:45:39.757Z,9.13
2023-08-15T14:49:41.316Z,7.70
2023-08-15T14:53:44.292Z,10.73
2023-08-15T14:57:45.866Z,9.32
2023-08-15T15:01:47.502Z,9.68
2023-08-15T15:05:49.108Z,9.68
2023-08-15T15:09:52.205Z,10.60
2023-08-15T15:13:53.778Z,7.60
2023-08-15T15:17:55.363Z,11.02
2023-08-15T15:21:56.987Z,11.52
2023-08-15T15:26:00.233Z,8.40
2023-08-15T15:30:01.927Z,12.45
2023-08-15T15:34:03.784Z,11.05
2023-08-15T15:38:05.372Z,13.70
2023-08-15T15:42:08.507Z,12.80
2023-08-15T15:46:10.189Z,10.80
2023-08-15T15:50:11.928Z,10.73
2023-08-15T15:54:13.486Z,12.38
2023-08-15T15:58:16.365Z,10.68
2023-08-15T16:02:17.938Z,12.93
2023-08-15T16:06:19.496Z,10.82
2023-08-15T16:10:21.121Z,13.68
2023-08-15T16:14:24.057Z,12.70
2023-08-15T16:18:25.877Z,12.10
2023-08-15T16:22:27.897Z,12.20
2023-08-15T16:26:29.444Z,12.05
2023-08-15T16:30:32.416Z,21.05
2023-08-15T16:34:34.398Z,22.17
2023-08-15T16:38:36.040Z,17.60
2023-08-15T16:42:37.604Z,17.92
2023-08-15T16:46:40.544Z,19.67
2023-08-15T16:50:42.248Z,16.38
2023-08-15T16:54:43.884Z,15.50
2023-08-15T16:58:45.466Z,16.50
2023-08-15T17:02:48.601Z,13.30
2023-08-15T17:06:50.420Z,18.50
2023-08-15T17:10:51.992Z,19.52
2023-08-15T17:14:53.509Z,14.90
2023-08-15T17:18:56.400Z,13.88
2023-08-15T17:22:58.056Z,11.30
2023-08-15T17:26:59.937Z,13.25
2023-08-15T17:31:01.506Z,14.07
2023-08-15T17:35:04.990Z,12.82
2023-08-15T17:39:06.535Z,11.63
2023-08-15T17:43:08.190Z,13.55
2023-08-15T17:47:10.049Z,12.75
2023-08-15T17:51:13.065Z,10.13
2023-08-15T17:55:14.801Z,12.77
2023-08-15T17:59:16.372Z,10.50
2023-08-15T18:03:18.025Z,10.98
2023-08-15T18:07:21.015Z,12.38
2023-08-15T18:11:22.644Z,14.00
2023-08-15T18:15:24.340Z,11.45
2023-08-15T18:19:25.892Z,13.63
2023-08-15T18:23:28.954Z,14.45
2023-08-15T18:27:30.528Z,11.82
2023-08-15T18:31:32.239Z,8.13
2023-08-15T18:35:33.854Z,14.30
2023-08-15T18:39:36.843Z,16.27
2023-08-15T18:43:38.376Z,12.10
2023-08-15T18:47:40.046Z,10.27
2023-08-15T18:51:41.673Z,11.30
2023-08-15T18:55:44.953Z,10.05
2023-08-15T18:59:46.563Z,12.30
2023-08-15T19:03:48.198Z,13.43
2023-08-15T19:07:49.828Z,14.70
2023-08-15T19:11:52.751Z,13.70
2023-08-15T19:15:54.300Z,16.65
2023-08-15T19:19:56.527Z,15.52
2023-08-15T19:23:58.097Z,16.67
2023-08-15T19:28:01.143Z,14.23
2023-08-15T19:32:02.739Z,14.52
2023-08-15T19:36:04.771Z,15.27
2023-08-15T19:40:07.910Z,13.93
2023-08-15T19:44:11.175Z,14.57
2023-08-15T19:48:12.863Z,12.07
2023-08-15T19:52:14.461Z,16.65
2023-08-15T19:56:16.289Z,12.95
2023-08-15T20:00:19.348Z,12.77
2023-08-15T20:04:21.022Z,14.90
2023-08-15T20:08:22.715Z,12.73
2023-08-15T20:12:24.622Z,13.60
2023-08-15T20:16:27.809Z,11.60
2023-08-15T20:20:29.416Z,12.18
2023-08-15T20:24:31.008Z,12.77
2023-08-15T20:28:32.613Z,13.50
2023-08-15T20:32:35.577Z,10.57
2023-08-15T20:36:37.999Z,13.80
2023-08-15T20:40:39.592Z,13.60
2023-08-15T20:44:41.189Z,14.30
2023-08-15T20:48:44.074Z,7.72
2023-08-15T20:52:45.618Z,8.95
2023-08-15T20:56:47.251Z,12.93
2023-08-15T21:00:48.866Z,12.60
2023-08-15T21:04:51.822Z,14.07
2023-08-15T21:08:53.366Z,13.70
2023-08-15T21:12:54.908Z,14.30
2023-08-15T21:16:56.541Z,14.45
2023-08-15T21:20:59.440Z,14.15
2023-08-15T21:25:01.016Z,19.50
2023-08-15T21:29:02.753Z,10.27
2023-08-15T21:33:04.734Z,15.95
2023-08-15T21:37:08.183Z,12.82
2023-08-15T21:41:11.953Z,14.73
2023-08-15T21:45:13.532Z,17.10
2023-08-15T21:49:15.099Z,14.25
2023-08-15T21:53:18.090Z,22.13
2023-08-15T21:57:19.849Z,19.58
2023-08-15T22:01:21.596Z,14.85
2023-08-15T22:05:23.640Z,14.35
2023-08-15T22:09:26.550Z,9.65
2023-08-15T22:13:28.134Z,12.48
2023-08-15T22:17:43.150Z,14.52
2023-08-15T22:21:47.487Z,15.70
2023-08-15T22:25:50.629Z,16.55
2023-08-15T22:29:52.199Z,11.38
2023-08-15T22:33:53.808Z,14.88
2023-08-15T22:37:55.406Z,11.80
2023-08-15T22:41:58.298Z,16.63
2023-08-15T22:45:59.885Z,17.33
2023-08-15T22:50:01.434Z,17.77
2023-08-15T22:54:03.114Z,13.43
2023-08-15T22:58:06.169Z,19.58
2023-08-15T23:02:07.710Z,16.85
2023-08-15T23:06:09.285Z,23.98
2023-08-15T23:10:11.083Z,18.65
2023-08-15T23:14:14.035Z,20.20
2023-08-15T23:18:15.589Z,22.80
2023-08-15T23:22:17.172Z,18.80
2023-08-15T23:26:18.686Z,16.63
2023-08-15T23:30:21.656Z,18.38
2023-08-15T23:34:23.227Z,18.00
2023-08-15T23:38:24.794Z,14.90
2023-08-15T23:42:26.337Z,19.73
2023-08-15T23:46:29.319Z,20.38
2023-08-15T23:50:30.945Z,18.35
2023-08-15T23:54:32.559Z,19.75
2023-08-15T23:58:34.122Z,17.98
